KSFO/SFO METAR and TAF weather

Enter ICAO airport designator
Station Type Date Time Source
KSFO METAR 2021/09/24 02:56 UTC NOAA

KSFO 240256Z 30012KT 10SM CLR 17/11 A2985 RMK AO2 SLP108 T01670111 53003


Station Type Date Time Source
KSFO Decoded METAR 2021/09/24 02:56 UTC NOAA

SAN FRANCISCO INTERNATIONAL AIRPORT , CA, United States (KSFO) 37-37N 122-22W 26M
Sep 23, 2021 - 10:56 PM EDT / 2021.09.24 0256 UTC
Wind: from the WNW (300 degrees) at 14 MPH (12 KT):0
Visibility: 10 mile(s):0
Sky conditions: clear
Temperature: 62.1 F (16.7 C)
Dew Point: 52.0 F (11.1 C)
Relative Humidity: 69%
Pressure (altimeter): 29.85 in. Hg (1010 hPa)
Pressure tendency: 0.01 inches (0.3 hPa) higher than three hours ago
ob: KSFO 240256Z 30012KT 10SM CLR 17/11 A2985 RMK AO2 SLP108 T01670111 53003
cycle: 3

Station Type Date Time Source
KSFO TAF 2021/09/24 03:03 UTC NOAA

TAF
AMD KSFO 240300Z 2403/2506 31012KT P6SM SKC
FM240400 30006KT P6SM SKC
FM241200 VRB04KT P6SM SCT008
FM241700 30008KT P6SM SKC
FM242200 31015KT P6SM SKC
FM250300 29010KT P6SM SKC

Example: see airport list